createdAt,value
2022-10-11T00:01:00.312Z,0.60
2022-10-11T00:03:32.795Z,0.10
2022-10-11T00:06:03.193Z,0.62
2022-10-11T00:08:31.599Z,1.05
2022-10-11T00:11:01.899Z,0.30
2022-10-11T00:13:29.791Z,0.30
2022-10-11T00:15:58.267Z,0.43
2022-10-11T00:18:25.870Z,0.60
2022-10-11T00:21:02.725Z,0.37
2022-10-11T00:23:30.263Z,0.52
2022-10-11T00:25:59.949Z,0.43
2022-10-11T00:28:27.465Z,0.47
2022-10-11T00:30:55.352Z,0.30
2022-10-11T00:33:23.004Z,0.52
2022-10-11T00:35:50.695Z,0.65
2022-10-11T00:38:18.930Z,0.43
2022-10-11T00:40:46.861Z,0.60
2022-10-11T00:43:19.896Z,0.37
2022-10-11T00:45:56.542Z,0.62
2022-10-11T00:48:48.603Z,0.40
2022-10-11T00:51:23.876Z,0.20
2022-10-11T00:53:52.890Z,0.77
2022-10-11T00:56:27.274Z,0.50
2022-10-11T00:58:58.183Z,0.30
2022-10-11T01:01:25.734Z,0.55
2022-10-11T01:03:53.350Z,0.20
2022-10-11T01:06:20.901Z,1.37
2022-10-11T01:08:48.613Z,0.30
2022-10-11T01:11:21.378Z,0.80
2022-10-11T01:13:59.748Z,0.13
2022-10-11T01:16:35.067Z,0.10
2022-10-11T01:19:11.897Z,0.37
2022-10-11T01:22:17.751Z,0.30
2022-10-11T01:24:54.546Z,1.90
2022-10-11T01:27:35.957Z,0.10
2022-10-11T01:30:29.854Z,0.53
2022-10-11T01:33:16.069Z,0.45
2022-10-11T01:35:56.357Z,0.40
2022-10-11T01:38:39.020Z,0.30
2022-10-11T01:41:14.245Z,0.40
2022-10-11T01:43:43.369Z,0.20
2022-10-11T01:46:11.791Z,0.47
2022-10-11T01:48:54.665Z,0.77
2022-10-11T01:51:28.711Z,0.35
2022-10-11T01:54:24.591Z,0.77
2022-10-11T01:57:29.859Z,0.10
2022-10-11T02:00:26.987Z,0.10
2022-10-11T02:03:09.477Z,0.47
2022-10-11T02:06:08.883Z,0.30
2022-10-11T02:08:57.091Z,0.77
2022-10-11T02:11:33.903Z,0.70
2022-10-11T02:14:09.132Z,0.30
2022-10-11T02:16:52.171Z,0.37
2022-10-11T02:19:22.857Z,0.47
2022-10-11T02:21:59.073Z,0.30
2022-10-11T02:24:32.126Z,0.10
2022-10-11T02:27:01.266Z,0.22
2022-10-11T02:29:32.795Z,0.30
2022-10-11T02:32:02.036Z,0.10
2022-10-11T02:34:34.452Z,0.10
2022-10-11T02:37:16.623Z,0.70
2022-10-11T02:39:55.369Z,0.55
2022-10-11T02:42:30.710Z,0.40
2022-10-11T02:45:08.356Z,0.35
2022-10-11T02:47:36.174Z,0.20
2022-10-11T02:50:04.554Z,0.57
2022-10-11T02:52:34.542Z,0.62
2022-10-11T02:55:02.130Z,0.45
2022-10-11T02:57:31.921Z,0.40
2022-10-11T02:59:59.411Z,0.93
2022-10-11T03:02:26.913Z,0.50
2022-10-11T03:04:54.389Z,0.32
2022-10-11T03:07:21.869Z,0.40
2022-10-11T03:09:51.778Z,0.20
2022-10-11T03:12:19.360Z,0.20
2022-10-11T03:14:47.081Z,0.47
2022-10-11T03:17:34.983Z,0.40
2022-10-11T03:20:02.062Z,0.10
2022-10-11T03:22:31.946Z,0.98
2022-10-11T03:25:03.641Z,0.50
2022-10-11T03:27:31.961Z,0.87
2022-10-11T03:29:59.455Z,0.10
2022-10-11T03:32:27.363Z,0.30
2022-10-11T03:34:54.986Z,0.35
2022-10-11T03:37:25.187Z,0.70
2022-10-11T03:39:52.720Z,0.30
2022-10-11T03:42:23.032Z,0.20
2022-10-11T03:44:52.671Z,0.40
2022-10-11T03:47:20.177Z,0.50
2022-10-11T03:49:47.668Z,0.30
2022-10-11T03:52:15.159Z,0.40
2022-10-11T03:54:43.102Z,0.52
2022-10-11T03:57:15.328Z,0.70
2022-10-11T03:59:42.881Z,0.20
2022-10-11T04:02:10.591Z,0.28
2022-10-11T04:04:38.160Z,0.30
2022-10-11T04:07:08.385Z,0.50
2022-10-11T04:09:39.322Z,0.32
2022-10-11T04:12:07.181Z,0.20
2022-10-11T04:14:35.975Z,0.43
2022-10-11T04:17:05.841Z,0.30
2022-10-11T04:19:33.351Z,0.57
2022-10-11T04:22:03.242Z,0.20
2022-10-11T04:24:30.786Z,0.55
2022-10-11T04:27:00.577Z,0.37
2022-10-11T04:29:32.419Z,0.80
2022-10-11T04:32:00.609Z,0.90
2022-10-11T04:34:31.435Z,0.30
2022-10-11T04:36:58.981Z,0.50
2022-10-11T04:39:26.577Z,0.43
2022-10-11T04:41:56.561Z,1.33
2022-10-11T04:44:24.087Z,0.30
2022-10-11T04:46:51.576Z,0.65
2022-10-11T04:49:21.237Z,0.37
2022-10-11T04:51:48.749Z,0.20
2022-10-11T04:54:18.735Z,0.73
2022-10-11T04:56:46.476Z,0.85
2022-10-11T04:59:14.097Z,0.25
2022-10-11T05:01:43.865Z,0.40
2022-10-11T05:04:11.415Z,0.85
2022-10-11T05:06:38.916Z,0.50
2022-10-11T05:09:06.422Z,0.40
2022-10-11T05:11:34.038Z,0.28
2022-10-11T05:14:03.969Z,0.22
2022-10-11T05:16:34.013Z,0.75
2022-10-11T05:19:01.535Z,0.30
2022-10-11T05:21:30.585Z,0.40
2022-10-11T05:24:01.749Z,0.65
2022-10-11T05:26:29.737Z,0.37
2022-10-11T05:28:57.654Z,0.52
2022-10-11T05:31:25.620Z,0.97
2022-10-11T05:33:53.701Z,1.12
2022-10-11T05:36:21.297Z,1.25
2022-10-11T05:38:48.854Z,0.40
2022-10-11T05:41:18.878Z,0.35
2022-10-11T05:43:47.537Z,0.40
2022-10-11T05:46:17.758Z,0.43
2022-10-11T05:48:47.495Z,0.40
2022-10-11T05:51:14.995Z,0.65
2022-10-11T05:53:42.807Z,1.08
2022-10-11T05:56:20.840Z,0.50
2022-10-11T05:58:50.794Z,0.57
2022-10-11T06:01:20.974Z,1.00
2022-10-11T06:03:50.968Z,0.95
2022-10-11T06:06:21.728Z,0.30
2022-10-11T06:08:50.025Z,0.50
2022-10-11T06:11:25.237Z,0.40
2022-10-11T06:13:58.992Z,0.55
2022-10-11T06:16:27.316Z,0.17
2022-10-11T06:18:58.082Z,0.55
2022-10-11T06:21:26.195Z,0.33
2022-10-11T06:24:00.002Z,0.30
2022-10-11T06:26:28.888Z,0.88
2022-10-11T06:28:56.559Z,0.77
2022-10-11T06:31:26.579Z,0.70
2022-10-11T06:33:54.065Z,0.60
2022-10-11T06:36:21.646Z,0.32
2022-10-11T06:38:52.944Z,0.57
2022-10-11T06:41:20.421Z,0.35
2022-10-11T06:43:49.432Z,0.93
2022-10-11T06:46:18.609Z,0.40
2022-10-11T06:48:47.625Z,0.50
2022-10-11T06:51:16.680Z,0.57
2022-10-11T06:53:44.414Z,0.40
2022-10-11T06:56:13.906Z,0.50
2022-10-11T06:58:41.652Z,0.97
2022-10-11T07:01:16.587Z,0.50
2022-10-11T07:03:44.145Z,0.40
2022-10-11T07:06:15.417Z,0.35
2022-10-11T07:08:43.348Z,0.60
2022-10-11T07:11:14.324Z,0.57
2022-10-11T07:13:42.603Z,0.90
2022-10-11T07:16:12.759Z,0.50
2022-10-11T07:18:40.597Z,0.85
2022-10-11T07:21:13.940Z,0.90
2022-10-11T07:23:41.973Z,0.37
2022-10-11T07:26:10.993Z,0.82
2022-10-11T07:28:40.077Z,0.85
2022-10-11T07:31:34.675Z,0.25
2022-10-11T07:34:04.332Z,0.93
2022-10-11T07:36:31.870Z,1.00
2022-10-11T07:38:59.584Z,1.02
2022-10-11T07:41:27.144Z,0.70
2022-10-11T07:43:55.135Z,1.75
2022-10-11T07:46:22.944Z,1.10
2022-10-11T07:48:55.087Z,0.80
2022-10-11T07:51:24.969Z,0.70
2022-10-11T07:53:55.823Z,0.90
2022-10-11T07:56:28.546Z,0.80
2022-10-11T07:59:03.522Z,0.80
2022-10-11T08:01:32.753Z,0.63
2022-10-11T08:04:01.018Z,0.52
2022-10-11T08:06:32.665Z,0.80
2022-10-11T08:09:01.530Z,0.80
2022-10-11T08:11:37.997Z,1.12
2022-10-11T08:14:09.163Z,0.53
2022-10-11T08:16:37.516Z,0.50
2022-10-11T08:19:05.148Z,0.82
2022-10-11T08:21:33.831Z,0.82
2022-10-11T08:24:03.909Z,1.30
2022-10-11T08:26:32.178Z,0.60
2022-10-11T08:29:02.273Z,1.08
2022-10-11T08:31:30.416Z,1.10
2022-10-11T08:33:58.257Z,1.00
2022-10-11T08:36:25.805Z,1.12
2022-10-11T08:38:53.420Z,0.73
2022-10-11T08:41:47.143Z,1.33
2022-10-11T08:44:46.416Z,0.93
2022-10-11T08:47:36.363Z,1.27
2022-10-11T08:50:07.417Z,1.20
2022-10-11T08:52:45.906Z,1.50
2022-10-11T08:55:43.988Z,1.83
2022-10-11T08:58:18.465Z,0.80
2022-10-11T09:00:49.205Z,1.30
2022-10-11T09:03:53.636Z,1.00
2022-10-11T09:06:39.566Z,1.37
2022-10-11T09:09:50.177Z,1.23
2022-10-11T09:12:30.996Z,1.65
2022-10-11T09:15:21.578Z,1.02
2022-10-11T09:18:09.793Z,1.23
2022-10-11T09:20:47.888Z,1.10
2022-10-11T09:23:47.386Z,1.85
2022-10-11T09:26:20.895Z,1.73
2022-10-11T09:29:16.996Z,1.35
2022-10-11T09:31:53.423Z,1.37
2022-10-11T09:34:22.955Z,1.20
2022-10-11T09:37:20.135Z,1.73
2022-10-11T09:39:54.742Z,1.25
2022-10-11T09:42:22.551Z,1.10
2022-10-11T09:44:51.946Z,1.33
2022-10-11T09:47:33.071Z,1.43
2022-10-11T09:50:06.555Z,1.35
2022-10-11T09:52:34.632Z,1.58
2022-10-11T09:55:03.626Z,2.20
2022-10-11T09:57:33.968Z,1.65
2022-10-11T10:00:21.763Z,1.80
2022-10-11T10:02:55.070Z,1.33
2022-10-11T10:05:25.175Z,1.17
2022-10-11T10:08:10.765Z,1.42
2022-10-11T10:10:44.066Z,1.67
2022-10-11T10:13:44.431Z,1.80
2022-10-11T10:16:26.921Z,1.55
2022-10-11T10:18:57.782Z,1.98
2022-10-11T10:21:29.535Z,1.60
2022-10-11T10:24:00.163Z,1.85
2022-10-11T10:26:28.498Z,1.53
2022-10-11T10:29:02.385Z,1.27
2022-10-11T10:32:14.426Z,1.60
2022-10-11T10:35:29.362Z,1.73
2022-10-11T10:38:41.797Z,1.58
2022-10-11T10:41:16.609Z,1.80
2022-10-11T10:43:53.088Z,2.47
2022-10-11T10:47:05.152Z,1.23
2022-10-11T10:49:53.528Z,1.73
2022-10-11T10:52:47.198Z,1.75
2022-10-11T10:55:59.887Z,2.43
2022-10-11T10:58:50.934Z,1.92
2022-10-11T11:01:26.311Z,1.75
2022-10-11T11:04:14.241Z,2.05
2022-10-11T11:06:54.810Z,1.55
2022-10-11T11:09:40.790Z,1.30
2022-10-11T11:12:39.069Z,1.58
2022-10-11T11:15:15.433Z,1.20
2022-10-11T11:18:17.502Z,1.08
2022-10-11T11:21:19.740Z,1.37
2022-10-11T11:24:01.310Z,1.80
2022-10-11T11:26:46.887Z,2.17
2022-10-11T11:29:43.565Z,1.65
2022-10-11T11:32:45.829Z,1.20
2022-10-11T11:35:38.243Z,1.50
2022-10-11T11:38:16.387Z,1.47
2022-10-11T11:40:49.733Z,1.40
2022-10-11T11:43:37.573Z,1.23
2022-10-11T11:46:18.617Z,2.30
2022-10-11T11:48:46.788Z,2.05
2022-10-11T11:51:27.812Z,2.33
2022-10-11T11:54:13.111Z,2.15
2022-10-11T11:56:55.419Z,2.20
2022-10-11T11:59:56.926Z,1.42
2022-10-11T12:02:55.447Z,2.08
2022-10-11T12:05:30.718Z,1.90
2022-10-11T12:08:00.659Z,1.80
2022-10-11T12:10:41.034Z,1.90
2022-10-11T12:13:32.452Z,2.22
2022-10-11T12:16:04.822Z,2.05
2022-10-11T12:18:33.499Z,1.43
2022-10-11T12:21:22.971Z,2.00
2022-10-11T12:23:56.452Z,1.85
2022-10-11T12:26:29.777Z,1.80
2022-10-11T12:29:34.989Z,2.12
2022-10-11T12:32:02.455Z,2.20
2022-10-11T12:34:35.757Z,1.80
2022-10-11T12:37:32.635Z,2.08
2022-10-11T12:40:01.176Z,2.05
2022-10-11T12:42:32.945Z,1.80
2022-10-11T12:45:13.043Z,2.20
2022-10-11T12:47:53.094Z,1.55
2022-10-11T12:50:43.697Z,1.37
2022-10-11T12:53:20.016Z,1.83
2022-10-11T12:55:47.618Z,1.60
2022-10-11T12:58:38.377Z,1.57
2022-10-11T13:01:05.885Z,1.83
2022-10-11T13:03:53.369Z,1.85
2022-10-11T13:06:20.887Z,1.80
2022-10-11T13:09:00.325Z,2.10
2022-10-11T13:11:36.654Z,1.83
2022-10-11T13:14:30.343Z,2.00
2022-10-11T13:17:00.526Z,1.37
2022-10-11T13:19:29.647Z,1.23
2022-10-11T13:22:04.645Z,2.15
2022-10-11T13:24:42.800Z,1.90
2022-10-11T13:27:20.495Z,1.40
2022-10-11T13:29:50.157Z,2.45
2022-10-11T13:32:26.801Z,1.90
2022-10-11T13:34:57.715Z,1.90
2022-10-11T13:37:28.864Z,1.50
2022-10-11T13:39:58.175Z,1.33
2022-10-11T13:42:31.975Z,1.58
2022-10-11T13:45:01.120Z,1.45
2022-10-11T13:47:32.947Z,1.85
2022-10-11T13:50:18.577Z,1.70
2022-10-11T13:53:08.006Z,1.37
2022-10-11T13:55:50.520Z,1.70
2022-10-11T13:58:27.037Z,2.08
2022-10-11T14:00:58.498Z,1.70
2022-10-11T14:03:42.338Z,1.47
2022-10-11T14:06:09.965Z,1.35
2022-10-11T14:08:45.879Z,1.55
2022-10-11T14:11:15.163Z,1.98
2022-10-11T14:13:47.797Z,1.85
2022-10-11T14:16:30.844Z,2.07
2022-10-11T14:19:01.247Z,1.23
2022-10-11T14:21:46.775Z,1.10
2022-10-11T14:24:17.798Z,2.35
2022-10-11T14:26:47.863Z,1.25
2022-10-11T14:29:28.963Z,1.93
2022-10-11T14:32:03.113Z,2.47
2022-10-11T14:34:31.580Z,2.37
2022-10-11T14:36:59.110Z,1.87
2022-10-11T14:39:28.265Z,1.52
2022-10-11T14:41:55.881Z,1.57
2022-10-11T14:44:24.278Z,1.58
2022-10-11T14:46:55.338Z,1.27
2022-10-11T14:49:26.090Z,1.87
2022-10-11T14:51:57.778Z,1.90
2022-10-11T14:54:27.417Z,2.03
2022-10-11T14:56:57.914Z,1.35
2022-10-11T14:59:28.923Z,1.60
2022-10-11T15:01:59.088Z,1.55
2022-10-11T15:04:27.999Z,1.75
2022-10-11T15:06:57.807Z,2.27
2022-10-11T15:09:25.903Z,1.40
2022-10-11T15:11:55.231Z,1.05
2022-10-11T15:14:24.461Z,1.27
2022-10-11T15:16:52.246Z,1.95
2022-10-11T15:19:25.182Z,1.50
2022-10-11T15:21:53.219Z,1.17
2022-10-11T15:24:20.910Z,0.90
2022-10-11T15:26:51.555Z,1.08
2022-10-11T15:29:21.794Z,2.08
2022-10-11T15:31:51.666Z,1.40
2022-10-11T15:34:19.161Z,1.25
2022-10-11T15:36:47.028Z,1.48
2022-10-11T15:39:27.892Z,1.55
2022-10-11T15:41:55.528Z,0.75
2022-10-11T15:44:25.480Z,1.33
2022-10-11T15:46:53.389Z,1.35
2022-10-11T15:49:20.970Z,1.40
2022-10-11T15:51:49.595Z,1.52
2022-10-11T15:54:17.803Z,2.08
2022-10-11T15:56:45.325Z,1.43
2022-10-11T15:59:17.855Z,1.48
2022-10-11T16:01:46.693Z,1.65
2022-10-11T16:04:14.235Z,1.70
2022-10-11T16:06:42.027Z,1.77
2022-10-11T16:09:09.674Z,1.40
2022-10-11T16:11:37.214Z,1.42
2022-10-11T16:14:07.154Z,2.37
2022-10-11T16:16:34.743Z,1.37
2022-10-11T16:19:02.247Z,1.50
2022-10-11T16:21:30.872Z,1.17
2022-10-11T16:24:01.443Z,1.67
2022-10-11T16:26:28.952Z,0.82
2022-10-11T16:28:58.772Z,1.25
2022-10-11T16:31:26.434Z,1.60
2022-10-11T16:33:53.995Z,2.10
2022-10-11T16:36:40.745Z,1.67
2022-10-11T16:39:18.240Z,1.27
2022-10-11T16:41:47.187Z,1.70
2022-10-11T16:44:17.559Z,2.42
2022-10-11T16:46:48.190Z,0.87
2022-10-11T16:49:22.441Z,1.40
2022-10-11T16:51:51.735Z,1.60
2022-10-11T16:54:22.246Z,1.55
2022-10-11T16:56:50.990Z,1.48
2022-10-11T16:59:21.146Z,0.93
2022-10-11T17:01:48.984Z,0.82
2022-10-11T17:04:18.892Z,1.20
2022-10-11T17:06:46.526Z,0.88
2022-10-11T17:09:14.617Z,1.02
2022-10-11T17:11:42.178Z,1.50
2022-10-11T17:14:11.529Z,0.77
2022-10-11T17:16:39.107Z,1.42
2022-10-11T17:19:10.853Z,1.35
2022-10-11T17:21:41.519Z,1.65
2022-10-11T17:24:09.083Z,1.10
2022-10-11T17:26:38.733Z,1.15
2022-10-11T17:29:06.265Z,1.25
2022-10-11T17:31:33.810Z,1.40
2022-10-11T17:34:01.971Z,1.48
2022-10-11T17:36:34.008Z,1.00
2022-10-11T17:39:09.319Z,1.48
2022-10-11T17:41:37.070Z,0.60
2022-10-11T17:44:07.016Z,1.12
2022-10-11T17:46:37.114Z,1.27
2022-10-11T17:49:07.904Z,0.97
2022-10-11T17:51:37.507Z,1.27
2022-10-11T17:54:06.123Z,1.70
2022-10-11T17:56:37.761Z,0.47
2022-10-11T17:59:06.082Z,1.62
2022-10-11T18:01:33.774Z,1.20
2022-10-11T18:04:03.524Z,0.93
2022-10-11T18:06:38.628Z,1.40
2022-10-11T18:09:06.712Z,1.05
2022-10-11T18:11:34.327Z,1.48
2022-10-11T18:14:05.246Z,0.93
2022-10-11T18:16:33.709Z,1.17
2022-10-11T18:19:03.558Z,0.68
2022-10-11T18:21:34.729Z,1.08
2022-10-11T18:24:03.958Z,1.35
2022-10-11T18:26:31.623Z,1.27
2022-10-11T18:28:59.743Z,1.25
2022-10-11T18:31:30.227Z,1.02
2022-10-11T18:33:58.188Z,1.12
2022-10-11T18:36:28.078Z,1.00
2022-10-11T18:38:58.160Z,0.90
2022-10-11T18:41:31.830Z,0.30
2022-10-11T18:44:02.947Z,1.17
2022-10-11T18:46:31.310Z,1.35
2022-10-11T18:49:02.301Z,0.73
2022-10-11T18:51:35.366Z,0.90
2022-10-11T18:54:03.720Z,1.00
2022-10-11T18:56:34.756Z,0.35
2022-10-11T18:59:02.668Z,1.40
2022-10-11T19:01:35.761Z,0.93
2022-10-11T19:04:04.350Z,0.50
2022-10-11T19:06:37.277Z,1.08
2022-10-11T19:09:11.192Z,1.25
2022-10-11T19:11:41.774Z,0.55
2022-10-11T19:14:12.128Z,0.70
2022-10-11T19:16:41.826Z,1.27
2022-10-11T19:19:13.196Z,1.00
2022-10-11T19:21:40.802Z,1.10
2022-10-11T19:24:08.615Z,0.80
2022-10-11T19:26:40.803Z,0.50
2022-10-11T19:29:17.350Z,0.30
2022-10-11T19:31:50.931Z,0.93
2022-10-11T19:34:18.773Z,0.75
2022-10-11T19:36:46.680Z,0.57
2022-10-11T19:39:18.751Z,1.23
2022-10-11T19:41:48.807Z,1.10
2022-10-11T19:44:17.512Z,1.40
2022-10-11T19:46:51.456Z,1.33
2022-10-11T19:49:21.536Z,0.60
2022-10-11T19:51:49.121Z,0.73
2022-10-11T19:54:16.847Z,0.97
2022-10-11T19:56:44.913Z,1.05
2022-10-11T19:59:13.130Z,1.02
2022-10-11T20:01:41.528Z,1.27
2022-10-11T20:04:27.389Z,1.23
2022-10-11T20:06:59.397Z,1.13
2022-10-11T20:09:30.044Z,0.98
2022-10-11T20:11:58.243Z,0.85
2022-10-11T20:14:26.157Z,1.00
2022-10-11T20:16:53.688Z,1.35
2022-10-11T20:19:26.227Z,0.53
2022-10-11T20:21:55.548Z,0.70
2022-10-11T20:24:23.087Z,1.17
2022-10-11T20:26:50.563Z,0.75
2022-10-11T20:29:20.615Z,0.37
2022-10-11T20:31:48.123Z,1.13
2022-10-11T20:34:15.615Z,0.90
2022-10-11T20:36:48.201Z,0.98
2022-10-11T20:39:16.818Z,1.50
2022-10-11T20:41:44.339Z,0.32
2022-10-11T20:44:13.140Z,1.50
2022-10-11T20:46:43.115Z,1.12
2022-10-11T20:49:12.489Z,1.00
2022-10-11T20:51:43.351Z,1.27
2022-10-11T20:54:11.262Z,1.30
2022-10-11T20:56:42.131Z,1.43
2022-10-11T20:59:11.127Z,0.80
2022-10-11T21:01:40.919Z,1.17
2022-10-11T21:04:11.126Z,1.10
2022-10-11T21:06:40.773Z,1.00
2022-10-11T21:09:12.673Z,0.30
2022-10-11T21:11:43.142Z,1.20
2022-10-11T21:14:10.663Z,1.37
2022-10-11T21:16:38.162Z,0.80
2022-10-11T21:19:06.219Z,0.95
2022-10-11T21:21:35.953Z,1.30
2022-10-11T21:24:04.126Z,1.48
2022-10-11T21:26:35.228Z,1.55
2022-10-11T21:29:04.038Z,0.60
2022-10-11T21:31:34.380Z,1.17
2022-10-11T21:34:04.962Z,0.77
2022-10-11T21:36:32.434Z,1.25
2022-10-11T21:38:59.951Z,1.05
2022-10-11T21:41:29.832Z,0.73
2022-10-11T21:43:58.067Z,0.73
2022-10-11T21:47:04.855Z,1.47
2022-10-11T21:49:18.615Z,0.55
2022-10-11T21:51:46.474Z,1.08
2022-10-11T21:54:13.972Z,0.65
2022-10-11T21:56:42.065Z,0.82
2022-10-11T21:59:12.319Z,1.27
2022-10-11T22:01:41.682Z,0.68
2022-10-11T22:04:09.500Z,1.02
2022-10-11T22:06:40.545Z,0.98
2022-10-11T22:09:09.242Z,1.55
2022-10-11T22:11:39.299Z,1.30
2022-10-11T22:14:06.953Z,1.02
2022-10-11T22:16:35.640Z,0.57
2022-10-11T22:19:03.372Z,0.65
2022-10-11T22:21:30.908Z,0.90
2022-10-11T22:23:58.711Z,0.93
2022-10-11T22:26:30.973Z,1.70
2022-10-11T22:29:00.155Z,0.80
2022-10-11T22:31:29.807Z,1.55
2022-10-11T22:34:01.628Z,0.40
2022-10-11T22:36:30.857Z,1.00
2022-10-11T22:39:07.646Z,0.60
2022-10-11T22:41:36.416Z,0.88
2022-10-11T22:44:04.450Z,0.57
2022-10-11T22:46:31.953Z,0.50
2022-10-11T22:48:59.547Z,0.40
2022-10-11T22:51:27.076Z,0.75
2022-10-11T22:53:54.554Z,1.42
2022-10-11T22:56:22.023Z,0.52
2022-10-11T22:58:49.710Z,0.90
2022-10-11T23:01:17.552Z,0.70
2022-10-11T23:03:49.098Z,0.88
2022-10-11T23:06:18.943Z,1.15
2022-10-11T23:08:46.539Z,0.60
2022-10-11T23:11:14.053Z,0.70
2022-10-11T23:13:41.642Z,1.10
2022-10-11T23:16:13.840Z,0.47
2022-10-11T23:18:41.820Z,1.33
2022-10-11T23:21:13.125Z,1.27
2022-10-11T23:23:42.842Z,1.52
2022-10-11T23:26:13.690Z,0.60
2022-10-11T23:28:44.982Z,0.80
2022-10-11T23:31:18.385Z,1.08
2022-10-11T23:33:47.227Z,0.68
2022-10-11T23:36:20.325Z,0.73
2022-10-11T23:38:53.230Z,1.37
2022-10-11T23:41:22.250Z,0.50
2022-10-11T23:43:50.009Z,0.45
2022-10-11T23:46:19.008Z,1.35
2022-10-11T23:48:48.997Z,0.75
2022-10-11T23:51:16.857Z,1.70
2022-10-11T23:53:44.482Z,0.75
2022-10-11T23:56:12.807Z,0.85
2022-10-11T23:58:40.547Z,1.10
